createdAt,value
2023-03-29T00:02:30.329Z,9.90
2023-03-29T00:05:02.199Z,9.90
2023-03-29T00:07:30.339Z,9.90
2023-03-29T00:09:58.030Z,9.90
2023-03-29T00:12:24.917Z,9.90
2023-03-29T00:14:52.045Z,9.90
2023-03-29T00:17:19.366Z,10.00
2023-03-29T00:19:47.898Z,10.00
2023-03-29T00:22:15.101Z,10.00
2023-03-29T00:24:42.022Z,10.10
2023-03-29T00:27:08.839Z,10.10
2023-03-29T00:29:35.923Z,10.10
2023-03-29T00:32:02.796Z,10.00
2023-03-29T00:34:32.870Z,10.10
2023-03-29T00:37:00.116Z,10.10
2023-03-29T00:39:27.998Z,10.00
2023-03-29T00:41:55.820Z,10.10
2023-03-29T00:44:59.518Z,10.10
2023-03-29T00:47:37.968Z,10.10
2023-03-29T00:50:12.495Z,10.10
2023-03-29T00:52:41.604Z,10.10
2023-03-29T00:55:14.394Z,10.20
2023-03-29T00:57:46.449Z,10.10
2023-03-29T01:00:20.876Z,10.20
2023-03-29T01:02:54.480Z,10.20
2023-03-29T01:05:37.724Z,10.20
2023-03-29T01:08:11.136Z,10.20
2023-03-29T01:10:49.180Z,10.20
2023-03-29T01:13:22.372Z,10.30
2023-03-29T01:15:49.284Z,10.30
2023-03-29T01:18:17.037Z,10.30
2023-03-29T01:21:06.562Z,10.30
2023-03-29T01:24:06.696Z,10.30
2023-03-29T01:27:00.677Z,10.30
2023-03-29T01:29:35.936Z,10.30
2023-03-29T01:32:18.089Z,10.40
2023-03-29T01:35:12.931Z,10.40
2023-03-29T01:37:48.206Z,10.40
2023-03-29T01:40:15.482Z,10.40
2023-03-29T01:42:54.388Z,10.50
2023-03-29T01:45:30.927Z,10.50
2023-03-29T01:48:35.343Z,10.50
2023-03-29T01:51:10.038Z,10.50
2023-03-29T01:53:49.512Z,10.50
2023-03-29T01:56:22.996Z,10.50
2023-03-29T01:59:01.088Z,10.60
2023-03-29T02:01:33.000Z,10.60
2023-03-29T02:04:04.202Z,10.60
2023-03-29T02:06:34.083Z,10.70
2023-03-29T02:09:01.564Z,10.70
2023-03-29T02:11:29.467Z,10.70
2023-03-29T02:13:57.071Z,10.70
2023-03-29T02:16:24.147Z,10.70
2023-03-29T02:18:53.173Z,10.80
2023-03-29T02:21:51.777Z,10.80
2023-03-29T02:24:21.838Z,10.80
2023-03-29T02:26:49.272Z,10.90
2023-03-29T02:29:16.436Z,10.90
2023-03-29T02:31:49.410Z,10.90
2023-03-29T02:34:28.886Z,10.90
2023-03-29T02:37:00.573Z,10.90
2023-03-29T02:39:31.723Z,10.90
2023-03-29T02:41:59.590Z,11.00
2023-03-29T02:44:28.942Z,11.00
2023-03-29T02:47:04.373Z,11.00
2023-03-29T02:49:31.534Z,11.00
2023-03-29T02:52:06.690Z,11.00
2023-03-29T02:54:34.539Z,11.10
2023-03-29T02:57:06.602Z,11.10
2023-03-29T02:59:34.630Z,11.00
2023-03-29T03:02:01.651Z,11.00
2023-03-29T03:04:29.737Z,11.00
2023-03-29T03:06:56.670Z,11.00
2023-03-29T03:09:24.136Z,11.00
2023-03-29T03:11:52.597Z,11.10
2023-03-29T03:14:22.861Z,11.10
2023-03-29T03:16:51.031Z,11.10
2023-03-29T03:19:17.850Z,11.10
2023-03-29T03:21:45.520Z,11.10
2023-03-29T03:24:12.721Z,11.20
2023-03-29T03:26:39.525Z,11.10
2023-03-29T03:29:07.524Z,11.10
2023-03-29T03:31:54.192Z,11.10
2023-03-29T03:34:56.649Z,11.20
2023-03-29T03:37:26.226Z,11.10
2023-03-29T03:39:53.651Z,11.10
2023-03-29T03:42:20.874Z,11.10
2023-03-29T03:44:47.981Z,11.10
2023-03-29T03:47:34.021Z,11.10
2023-03-29T03:50:14.531Z,11.10
2023-03-29T03:52:41.625Z,11.10
2023-03-29T03:55:09.829Z,11.10
2023-03-29T03:57:52.746Z,11.10
2023-03-29T04:00:21.282Z,11.10
2023-03-29T04:03:06.333Z,11.10
2023-03-29T04:05:40.049Z,11.10
2023-03-29T04:08:07.269Z,11.10
2023-03-29T04:10:57.598Z,11.10
2023-03-29T04:13:30.189Z,11.00
2023-03-29T04:16:19.611Z,11.00
2023-03-29T04:18:47.073Z,11.00
2023-03-29T04:21:14.003Z,11.10
2023-03-29T04:23:42.939Z,11.10
2023-03-29T04:26:09.939Z,11.10
2023-03-29T04:28:49.284Z,11.10
2023-03-29T04:31:36.748Z,11.10
2023-03-29T04:34:27.057Z,11.10
2023-03-29T04:36:56.509Z,11.10
2023-03-29T04:39:32.096Z,11.10
2023-03-29T04:42:00.364Z,11.10
2023-03-29T04:44:29.906Z,11.20
2023-03-29T04:46:59.469Z,11.20
2023-03-29T04:49:45.070Z,11.20
2023-03-29T04:52:19.941Z,11.30
2023-03-29T04:54:48.480Z,11.30
2023-03-29T04:57:25.955Z,11.30
2023-03-29T05:00:01.234Z,11.30
2023-03-29T05:02:47.417Z,11.40
2023-03-29T05:05:15.525Z,11.40
2023-03-29T05:07:44.342Z,11.40
2023-03-29T05:10:12.348Z,11.40
2023-03-29T05:12:39.330Z,11.40
2023-03-29T05:15:07.074Z,11.40
2023-03-29T05:17:34.380Z,11.40
2023-03-29T05:20:10.200Z,11.30
2023-03-29T05:22:38.412Z,11.30
2023-03-29T05:25:08.333Z,11.30
2023-03-29T05:27:35.365Z,11.40
2023-03-29T05:30:09.224Z,11.40
2023-03-29T05:32:52.845Z,11.50
2023-03-29T05:35:25.491Z,11.50
2023-03-29T05:37:54.061Z,11.50
2023-03-29T05:40:22.114Z,11.50
2023-03-29T05:43:07.727Z,11.50
2023-03-29T05:45:34.713Z,11.50
2023-03-29T05:48:01.975Z,11.50
2023-03-29T05:50:30.215Z,11.50
2023-03-29T05:52:58.112Z,11.50
2023-03-29T05:55:25.027Z,11.50
2023-03-29T05:57:52.549Z,11.60
2023-03-29T06:00:24.257Z,11.50
2023-03-29T06:03:06.400Z,11.60
2023-03-29T06:05:40.881Z,11.60
2023-03-29T06:08:08.983Z,11.60
2023-03-29T06:10:41.974Z,11.60
2023-03-29T06:13:29.928Z,11.60
2023-03-29T06:15:56.979Z,11.60
2023-03-29T06:18:25.349Z,11.60
2023-03-29T06:20:53.791Z,11.60
2023-03-29T06:23:22.354Z,11.70
2023-03-29T06:25:51.519Z,11.70
2023-03-29T06:28:19.465Z,11.80
2023-03-29T06:30:46.978Z,11.80
2023-03-29T06:33:14.622Z,11.90
2023-03-29T06:36:01.878Z,11.90
2023-03-29T06:38:29.324Z,12.00
2023-03-29T06:41:07.896Z,12.00
2023-03-29T06:44:06.808Z,12.00
2023-03-29T06:46:38.698Z,12.10
2023-03-29T06:49:07.639Z,12.10
2023-03-29T06:51:44.106Z,12.10
2023-03-29T06:54:11.713Z,12.20
2023-03-29T06:56:47.345Z,12.20
2023-03-29T06:59:16.203Z,12.20
2023-03-29T07:01:50.023Z,12.20
2023-03-29T07:04:29.303Z,12.30
2023-03-29T07:07:22.801Z,12.30
2023-03-29T07:10:01.834Z,12.30
2023-03-29T07:13:00.991Z,12.30
2023-03-29T07:15:29.540Z,12.30
2023-03-29T07:18:18.928Z,12.30
2023-03-29T07:20:47.637Z,12.40
2023-03-29T07:23:15.382Z,12.40
2023-03-29T07:25:42.406Z,12.40
2023-03-29T07:28:11.197Z,12.50
2023-03-29T07:30:38.452Z,12.50
2023-03-29T07:33:23.387Z,12.60
2023-03-29T07:35:53.442Z,12.60
2023-03-29T07:38:20.587Z,12.70
2023-03-29T07:40:54.436Z,12.70
2023-03-29T07:43:57.036Z,12.70
2023-03-29T07:46:25.511Z,12.80
2023-03-29T07:48:52.695Z,12.90
2023-03-29T07:51:20.473Z,12.90
2023-03-29T07:53:54.989Z,12.90
2023-03-29T07:56:42.349Z,13.00
2023-03-29T07:59:22.978Z,13.00
2023-03-29T08:02:02.937Z,13.10
2023-03-29T08:04:37.829Z,13.10
2023-03-29T08:07:34.248Z,13.10
2023-03-29T08:10:39.651Z,13.00
2023-03-29T08:13:27.870Z,13.10
2023-03-29T08:16:18.515Z,13.10
2023-03-29T08:18:52.592Z,13.10
2023-03-29T08:21:21.800Z,13.20
2023-03-29T08:23:50.003Z,13.20
2023-03-29T08:26:40.454Z,13.30
2023-03-29T08:29:08.843Z,13.40
2023-03-29T08:31:35.869Z,13.50
2023-03-29T08:34:03.559Z,13.50
2023-03-29T08:36:36.603Z,13.50
2023-03-29T08:39:11.088Z,13.60
2023-03-29T08:41:57.768Z,13.60
2023-03-29T08:44:37.095Z,13.70
2023-03-29T08:47:33.225Z,13.70
2023-03-29T08:50:01.518Z,13.80
2023-03-29T08:52:48.427Z,13.80
2023-03-29T08:55:42.666Z,13.80
2023-03-29T08:58:49.740Z,13.90
2023-03-29T09:01:16.908Z,13.90
2023-03-29T09:04:13.143Z,13.90
2023-03-29T09:07:03.940Z,14.00
2023-03-29T09:09:42.265Z,14.00
2023-03-29T09:12:30.050Z,14.10
2023-03-29T09:15:09.451Z,14.10
2023-03-29T09:18:16.223Z,14.10
2023-03-29T09:21:02.191Z,14.20
2023-03-29T09:23:47.243Z,14.30
2023-03-29T09:27:08.580Z,14.40
2023-03-29T09:29:53.546Z,14.50
2023-03-29T09:32:42.284Z,14.50
2023-03-29T09:35:18.780Z,14.60
2023-03-29T09:37:49.128Z,14.70
2023-03-29T09:40:27.840Z,14.70
2023-03-29T09:43:27.122Z,14.80
2023-03-29T09:45:58.023Z,14.90
2023-03-29T09:48:27.124Z,14.90
2023-03-29T09:50:57.541Z,15.00
2023-03-29T09:53:24.937Z,15.10
2023-03-29T09:56:11.710Z,15.10
2023-03-29T09:58:46.562Z,15.10
2023-03-29T10:01:17.398Z,15.10
2023-03-29T10:03:50.640Z,15.10
2023-03-29T10:06:19.250Z,15.10
2023-03-29T10:08:55.070Z,15.10
2023-03-29T10:11:33.161Z,15.10
2023-03-29T10:14:06.629Z,15.10
2023-03-29T10:16:40.423Z,15.10
2023-03-29T10:19:30.963Z,15.10
2023-03-29T10:22:00.623Z,15.20
2023-03-29T10:24:28.251Z,15.20
2023-03-29T10:27:00.224Z,15.20
2023-03-29T10:29:34.544Z,15.20
2023-03-29T10:32:01.678Z,15.20
2023-03-29T10:34:28.637Z,15.20
2023-03-29T10:37:01.113Z,15.20
2023-03-29T10:39:33.298Z,15.30
2023-03-29T10:42:03.281Z,15.40
2023-03-29T10:44:36.387Z,15.40
2023-03-29T10:47:13.474Z,15.40
2023-03-29T10:49:44.162Z,15.50
2023-03-29T10:52:13.915Z,15.40
2023-03-29T10:54:40.967Z,15.40
2023-03-29T10:57:17.019Z,15.40
2023-03-29T10:59:59.128Z,15.40
2023-03-29T11:02:52.194Z,15.40
2023-03-29T11:05:28.639Z,15.40
2023-03-29T11:08:12.611Z,15.40
2023-03-29T11:10:46.813Z,15.40
2023-03-29T11:13:13.609Z,15.40
2023-03-29T11:15:53.454Z,15.50
2023-03-29T11:18:32.653Z,15.50
2023-03-29T11:21:33.418Z,15.50
2023-03-29T11:24:09.075Z,15.50
2023-03-29T11:26:38.678Z,15.50
2023-03-29T11:29:34.847Z,15.50
2023-03-29T11:32:20.473Z,15.60
2023-03-29T11:35:22.049Z,15.60
2023-03-29T11:38:19.219Z,15.60
2023-03-29T11:41:13.789Z,15.60
2023-03-29T11:44:06.250Z,15.70
2023-03-29T11:46:56.133Z,15.60
2023-03-29T11:49:36.897Z,15.60
2023-03-29T11:52:18.013Z,15.60
2023-03-29T11:54:51.497Z,15.70
2023-03-29T11:57:40.591Z,15.60
2023-03-29T12:00:22.589Z,15.70
2023-03-29T12:02:55.521Z,15.70
2023-03-29T12:05:52.289Z,15.70
2023-03-29T12:08:50.082Z,15.70
2023-03-29T12:11:27.325Z,15.70
2023-03-29T12:13:56.898Z,15.70
2023-03-29T12:16:39.905Z,15.60
2023-03-29T12:19:24.297Z,15.70
2023-03-29T12:21:51.857Z,15.60
2023-03-29T12:24:21.122Z,15.60
2023-03-29T12:27:07.817Z,15.60
2023-03-29T12:29:34.765Z,15.60
2023-03-29T12:32:33.282Z,15.70
2023-03-29T12:35:23.128Z,15.70
2023-03-29T12:38:23.909Z,15.70
2023-03-29T12:41:17.358Z,15.80
2023-03-29T12:44:04.110Z,15.80
2023-03-29T12:46:47.143Z,15.90
2023-03-29T12:49:27.068Z,16.00
2023-03-29T12:51:57.331Z,16.10
2023-03-29T12:54:28.347Z,16.20
2023-03-29T12:57:00.334Z,16.30
2023-03-29T12:59:44.550Z,16.30
2023-03-29T13:02:15.047Z,16.40
2023-03-29T13:04:56.407Z,16.50
2023-03-29T13:07:23.514Z,16.50
2023-03-29T13:09:51.791Z,16.60
2023-03-29T13:12:31.425Z,16.60
2023-03-29T13:15:05.962Z,16.70
2023-03-29T13:18:01.694Z,16.70
2023-03-29T13:20:37.740Z,16.90
2023-03-29T13:23:07.873Z,17.00
2023-03-29T13:25:43.632Z,17.10
2023-03-29T13:28:56.628Z,17.30
2023-03-29T13:32:10.260Z,17.30
2023-03-29T13:35:07.026Z,17.40
2023-03-29T13:38:00.171Z,17.40
2023-03-29T13:40:30.015Z,17.40
2023-03-29T13:43:19.585Z,17.40
2023-03-29T13:45:58.485Z,17.50
2023-03-29T13:48:37.707Z,17.50
2023-03-29T13:51:33.919Z,17.50
2023-03-29T13:54:22.383Z,17.60
2023-03-29T13:57:01.456Z,17.60
2023-03-29T13:59:35.750Z,17.60
2023-03-29T14:02:06.498Z,17.70
2023-03-29T14:04:43.601Z,17.70
2023-03-29T14:07:14.044Z,17.80
2023-03-29T14:09:48.734Z,17.90
2023-03-29T14:12:17.215Z,18.00
2023-03-29T14:14:58.135Z,18.00
2023-03-29T14:17:25.872Z,18.00
2023-03-29T14:19:53.472Z,18.10
2023-03-29T14:22:21.791Z,18.10
2023-03-29T14:24:53.597Z,18.20
2023-03-29T14:27:22.020Z,18.20
2023-03-29T14:29:51.091Z,18.20
2023-03-29T14:32:20.202Z,18.30
2023-03-29T14:34:50.865Z,18.30
2023-03-29T14:37:23.613Z,18.40
2023-03-29T14:39:50.934Z,18.40
2023-03-29T14:42:26.751Z,18.40
2023-03-29T14:45:04.383Z,18.40
2023-03-29T14:47:33.437Z,18.40
2023-03-29T14:50:01.782Z,18.40
2023-03-29T14:52:30.462Z,18.40
2023-03-29T14:55:01.965Z,18.40
2023-03-29T14:57:34.157Z,18.40
2023-03-29T15:00:08.114Z,18.40
2023-03-29T15:02:35.065Z,18.40
2023-03-29T15:05:07.534Z,18.40
2023-03-29T15:07:37.155Z,18.50
2023-03-29T15:10:06.529Z,18.50
2023-03-29T15:12:34.139Z,18.60
2023-03-29T15:15:02.661Z,18.60
2023-03-29T15:17:50.118Z,18.60
2023-03-29T15:20:27.060Z,18.60
2023-03-29T15:23:01.901Z,18.60
2023-03-29T15:25:34.388Z,18.60
2023-03-29T15:28:01.785Z,18.60
2023-03-29T15:30:35.031Z,18.60
2023-03-29T15:33:23.132Z,18.60
2023-03-29T15:35:52.770Z,18.50
2023-03-29T15:38:27.497Z,18.50
2023-03-29T15:41:01.370Z,18.50
2023-03-29T15:43:28.467Z,18.40
2023-03-29T15:45:55.413Z,18.40
2023-03-29T15:48:27.347Z,18.40
2023-03-29T15:50:54.823Z,18.40
2023-03-29T15:53:23.643Z,18.40
2023-03-29T15:55:54.310Z,18.40
2023-03-29T15:58:30.584Z,18.30
2023-03-29T16:01:19.411Z,18.30
2023-03-29T16:03:47.966Z,18.30
2023-03-29T16:06:16.700Z,18.30
2023-03-29T16:08:43.714Z,18.30
2023-03-29T16:11:11.736Z,18.20
2023-03-29T16:13:38.871Z,18.10
2023-03-29T16:16:06.786Z,18.10
2023-03-29T16:18:33.812Z,18.00
2023-03-29T16:21:01.005Z,17.90
2023-03-29T16:23:28.016Z,17.80
2023-03-29T16:25:56.166Z,17.80
2023-03-29T16:28:23.153Z,17.70
2023-03-29T16:30:50.065Z,17.70
2023-03-29T16:33:17.107Z,17.70
2023-03-29T16:35:44.054Z,17.60
2023-03-29T16:38:10.919Z,17.60
2023-03-29T16:40:38.420Z,17.60
2023-03-29T16:43:05.966Z,17.60
2023-03-29T16:45:32.941Z,17.60
2023-03-29T16:47:59.867Z,17.70
2023-03-29T16:50:26.801Z,17.70
2023-03-29T16:52:53.746Z,17.70
2023-03-29T16:55:20.719Z,17.70
2023-03-29T16:57:48.539Z,17.70
2023-03-29T17:00:19.864Z,17.70
2023-03-29T17:02:49.691Z,17.60
2023-03-29T17:05:17.780Z,17.60
2023-03-29T17:07:45.732Z,17.60
2023-03-29T17:10:13.648Z,17.60
2023-03-29T17:12:41.017Z,17.60
2023-03-29T17:15:09.393Z,17.60
2023-03-29T17:17:37.750Z,17.60
2023-03-29T17:20:08.554Z,17.60
2023-03-29T17:22:35.981Z,17.60
2023-03-29T17:25:03.968Z,17.50
2023-03-29T17:27:31.033Z,17.50
2023-03-29T17:29:57.968Z,17.50
2023-03-29T17:32:25.513Z,17.40
2023-03-29T17:34:53.109Z,17.40
2023-03-29T17:37:21.348Z,17.40
2023-03-29T17:39:48.314Z,17.40
2023-03-29T17:42:16.249Z,17.40
2023-03-29T17:44:43.708Z,17.30
2023-03-29T17:47:10.561Z,17.30
2023-03-29T17:49:37.366Z,17.30
2023-03-29T17:52:04.430Z,17.30
2023-03-29T17:54:31.243Z,17.30
2023-03-29T17:56:58.153Z,17.20
2023-03-29T17:59:25.866Z,17.10
2023-03-29T18:01:52.698Z,17.10
2023-03-29T18:04:19.532Z,17.10
2023-03-29T18:06:46.483Z,17.10
2023-03-29T18:09:13.603Z,17.00
2023-03-29T18:11:40.544Z,17.00
2023-03-29T18:14:07.720Z,16.90
2023-03-29T18:16:34.698Z,16.80
2023-03-29T18:19:01.760Z,16.80
2023-03-29T18:21:28.793Z,16.80
2023-03-29T18:23:56.951Z,16.70
2023-03-29T18:26:25.138Z,16.70
2023-03-29T18:28:52.413Z,16.70
2023-03-29T18:31:19.949Z,16.70
2023-03-29T18:33:47.992Z,16.60
2023-03-29T18:36:15.160Z,16.50
2023-03-29T18:38:43.536Z,16.60
2023-03-29T18:41:13.663Z,16.60
2023-03-29T18:43:41.605Z,16.50
2023-03-29T18:46:08.551Z,16.50
2023-03-29T18:48:38.949Z,16.50
2023-03-29T18:51:08.055Z,16.50
2023-03-29T18:53:36.129Z,16.50
2023-03-29T18:56:04.472Z,16.50
2023-03-29T18:58:31.577Z,16.40
2023-03-29T19:01:04.284Z,16.50
2023-03-29T19:03:33.328Z,16.50
2023-03-29T19:06:01.260Z,16.50
2023-03-29T19:08:28.366Z,16.50
2023-03-29T19:11:02.216Z,16.50
2023-03-29T19:13:29.116Z,16.50
2023-03-29T19:15:56.006Z,16.50
2023-03-29T19:18:23.105Z,16.50
2023-03-29T19:20:54.314Z,16.50
2023-03-29T19:23:27.256Z,16.50
2023-03-29T19:26:00.311Z,16.50
2023-03-29T19:28:27.995Z,16.50
2023-03-29T19:30:56.276Z,16.50
2023-03-29T19:33:23.335Z,16.60
2023-03-29T19:35:51.719Z,16.60
2023-03-29T19:38:19.769Z,16.60
2023-03-29T19:40:48.373Z,16.60
2023-03-29T19:43:18.783Z,16.60
2023-03-29T19:45:47.550Z,16.60
2023-03-29T19:48:21.832Z,16.60
2023-03-29T19:50:49.754Z,16.60
2023-03-29T19:53:16.886Z,16.60
2023-03-29T19:55:45.454Z,16.70
2023-03-29T19:58:13.047Z,16.70
2023-03-29T20:00:41.788Z,16.70
2023-03-29T20:03:09.869Z,16.70
2023-03-29T20:05:37.461Z,16.60
2023-03-29T20:08:04.516Z,16.70
2023-03-29T20:10:31.528Z,16.70
2023-03-29T20:12:58.475Z,16.70
2023-03-29T20:15:28.307Z,16.70
2023-03-29T20:17:59.452Z,16.70
2023-03-29T20:20:27.532Z,16.70
2023-03-29T20:22:58.398Z,16.70
2023-03-29T20:25:25.878Z,16.70
2023-03-29T20:27:53.045Z,16.80
2023-03-29T20:30:20.574Z,16.70
2023-03-29T20:32:47.693Z,16.70
2023-03-29T20:35:14.702Z,16.80
2023-03-29T20:37:41.587Z,16.80
2023-03-29T20:40:09.167Z,16.80
2023-03-29T20:42:38.261Z,16.80
2023-03-29T20:45:05.876Z,16.80
2023-03-29T20:47:32.741Z,16.80
2023-03-29T20:50:01.625Z,16.80
2023-03-29T20:52:28.456Z,16.80
2023-03-29T20:54:55.318Z,16.80
2023-03-29T20:57:22.457Z,16.80
2023-03-29T20:59:49.423Z,16.90
2023-03-29T21:02:22.772Z,16.80
2023-03-29T21:04:53.791Z,16.80
2023-03-29T21:07:21.443Z,16.80
2023-03-29T21:09:49.870Z,16.80
2023-03-29T21:12:17.475Z,16.80
2023-03-29T21:14:44.799Z,16.80
2023-03-29T21:17:11.645Z,16.80
2023-03-29T21:19:39.557Z,16.80
2023-03-29T21:22:06.801Z,16.80
2023-03-29T21:24:36.397Z,16.80
2023-03-29T21:27:03.366Z,16.80
2023-03-29T21:29:30.298Z,16.80
2023-03-29T21:31:57.171Z,16.70
2023-03-29T21:34:24.251Z,16.70
2023-03-29T21:36:51.431Z,16.70
2023-03-29T21:39:18.440Z,16.60
2023-03-29T21:41:45.245Z,16.60
2023-03-29T21:44:12.837Z,16.50
2023-03-29T21:46:39.778Z,16.50
2023-03-29T21:49:06.899Z,16.50
2023-03-29T21:51:33.760Z,16.50
2023-03-29T21:54:00.597Z,16.40
2023-03-29T21:56:28.159Z,16.40
2023-03-29T21:58:55.652Z,16.40
2023-03-29T22:01:22.530Z,16.40
2023-03-29T22:03:49.428Z,16.40
2023-03-29T22:06:16.389Z,16.40
2023-03-29T22:08:43.378Z,16.40
2023-03-29T22:11:14.326Z,16.40
2023-03-29T22:13:42.673Z,16.40
2023-03-29T22:16:13.887Z,16.40
2023-03-29T22:18:44.255Z,16.40
2023-03-29T22:21:15.768Z,16.40
2023-03-29T22:23:44.501Z,16.30
2023-03-29T22:26:13.927Z,16.30
2023-03-29T22:28:41.787Z,16.30
2023-03-29T22:31:11.949Z,16.30
2023-03-29T22:33:40.277Z,16.30
2023-03-29T22:36:21.891Z,16.30
2023-03-29T22:38:49.873Z,16.30
2023-03-29T22:41:18.149Z,16.30
2023-03-29T22:43:45.552Z,16.20
2023-03-29T22:46:14.007Z,16.20
2023-03-29T22:48:41.333Z,16.20
2023-03-29T22:51:08.370Z,16.10
2023-03-29T22:53:35.447Z,16.10
2023-03-29T22:56:02.789Z,16.10
2023-03-29T22:58:29.817Z,16.10
2023-03-29T23:00:57.856Z,16.10
2023-03-29T23:03:25.143Z,16.10
2023-03-29T23:05:55.068Z,16.20
2023-03-29T23:08:23.250Z,16.20
2023-03-29T23:10:50.577Z,16.20
2023-03-29T23:13:24.235Z,16.20
2023-03-29T23:15:52.642Z,16.20
2023-03-29T23:18:21.231Z,16.20
2023-03-29T23:20:49.507Z,16.20
2023-03-29T23:23:17.798Z,16.20
2023-03-29T23:25:48.828Z,16.20
2023-03-29T23:28:21.753Z,16.20
2023-03-29T23:31:00.333Z,16.20
2023-03-29T23:33:29.268Z,16.30
2023-03-29T23:35:56.820Z,16.20
2023-03-29T23:38:24.230Z,16.30
2023-03-29T23:40:58.823Z,16.30
2023-03-29T23:43:32.829Z,16.30
2023-03-29T23:46:05.915Z,16.30
2023-03-29T23:48:34.355Z,16.30
2023-03-29T23:51:02.351Z,16.30
2023-03-29T23:53:30.288Z,16.30
2023-03-29T23:56:02.093Z,16.30
2023-03-29T23:58:31.822Z,16.20
